Time;durP1;ratioP1;P1;durP2;ratioP2;P2;SDS_P1;SDS_P2;PMS_P1;PMS_P2;Temp;Humidity;BMP_temperature;BMP_pressure;BME280_temperature;BME280_humidity;BME280_pressure;Samples;Min_cycle;Max_cycle;Signal;HPM_P1;HPM_P2
2022/05/05 00:02:31;;;;;;;13.00;9.63;;;11.80;99.90;;;;;;5033191;28;20452;-82
2022/05/05 00:05:15;;;;;;;10.10;9.10;;;11.80;99.90;;;;;;5052896;28;20492;-81
2022/05/05 00:08:00;;;;;;;9.30;8.33;;;11.80;99.90;;;;;;5055156;28;20395;-82
2022/05/05 00:16:45;;;;;;;15.10;9.97;;;11.70;99.90;;;;;;5033870;28;21086;-83
2022/05/05 00:19:32;;;;;;;13.10;9.47;;;11.60;99.90;;;;;;5046864;28;20508;-83
2022/05/05 00:22:17;;;;;;;9.03;8.13;;;11.80;99.90;;;;;;5047031;28;20387;-83
2022/05/05 00:25:01;;;;;;;10.33;9.23;;;11.70;99.90;;;;;;5031423;28;20728;-82
2022/05/05 00:27:46;;;;;;;8.70;7.63;;;11.60;99.90;;;;;;5046279;28;20386;-83
2022/05/05 00:30:30;;;;;;;12.97;9.20;;;11.40;99.90;;;;;;5031071;28;20402;-83
2022/05/05 00:33:15;;;;;;;8.37;7.57;;;11.30;99.90;;;;;;5031025;28;20395;-84
2022/05/05 00:36:00;;;;;;;9.50;7.97;;;11.50;99.90;;;;;;5031417;28;20449;-82
2022/05/05 00:38:45;;;;;;;10.30;8.73;;;11.50;99.90;;;;;;5047020;28;20387;-83
2022/05/05 00:41:36;;;;;;;11.80;8.80;;;11.60;99.90;;;;;;5046673;28;20394;-82
2022/05/05 00:44:21;;;;;;;15.30;10.90;;;11.90;99.90;;;;;;5047015;28;20464;-83
2022/05/05 00:47:06;;;;;;;13.40;10.40;;;12.00;99.90;;;;;;5047316;28;20430;-83
2022/05/05 00:49:52;;;;;;;16.10;10.70;;;12.00;99.90;;;;;;5047320;28;20422;-84
2022/05/05 00:52:36;;;;;;;15.70;12.07;;;12.20;99.90;;;;;;5031802;28;20403;-83
2022/05/05 00:55:21;;;;;;;13.33;9.97;;;12.20;99.90;;;;;;5046838;28;20465;-83
2022/05/05 00:58:06;;;;;;;15.00;11.00;;;12.50;99.90;;;;;;5031987;28;20395;-84
2022/05/05 01:00:51;;;;;;;12.83;11.00;;;12.60;99.90;;;;;;5018556;28;20395;-83
2022/05/05 01:03:37;;;;;;;11.37;9.83;;;12.80;99.90;;;;;;5032738;28;20733;-83
2022/05/05 01:06:22;;;;;;;11.60;9.83;;;12.90;99.90;;;;;;5046777;28;20418;-83
2022/05/05 01:09:07;;;;;;;10.40;9.20;;;12.90;99.90;;;;;;5047315;28;20455;-83
2022/05/05 01:11:51;;;;;;;12.30;9.07;;;12.90;99.90;;;;;;5045718;28;20747;-83
2022/05/05 01:14:36;;;;;;;10.80;9.70;;;13.00;99.90;;;;;;5045610;28;20430;-84
2022/05/05 01:17:22;;;;;;;9.73;8.83;;;13.10;99.90;;;;;;5046932;28;20872;-82
2022/05/05 01:20:18;;;;;;;10.97;9.87;;;13.10;99.90;;;;;;5032324;28;20406;-83
2022/05/05 01:23:02;;;;;;;12.30;9.40;;;13.20;99.90;;;;;;5046427;28;20395;-84
2022/05/05 01:28:53;;;;;;;10.40;9.23;;;13.10;99.90;;;;;;5045835;28;20386;-83
2022/05/05 01:31:39;;;;;;;11.90;9.63;;;13.20;99.90;;;;;;5031208;28;20404;-84
2022/05/05 01:34:24;;;;;;;15.83;11.53;;;13.10;99.90;;;;;;5045239;28;20387;-83
2022/05/05 01:37:08;;;;;;;13.33;11.57;;;13.10;99.90;;;;;;5046038;28;20399;-84
2022/05/05 01:39:52;;;;;;;12.20;9.50;;;13.00;99.90;;;;;;5046124;28;20444;-83
2022/05/05 01:42:38;;;;;;;13.43;10.60;;;13.00;99.90;;;;;;5046244;28;20387;-83
2022/05/05 01:45:23;;;;;;;16.77;12.20;;;13.00;99.90;;;;;;5046649;28;20399;-83
2022/05/05 01:48:08;;;;;;;12.40;11.20;;;13.00;99.90;;;;;;5046997;28;20456;-82
2022/05/05 01:50:53;;;;;;;16.87;10.43;;;12.90;99.90;;;;;;5046032;28;20383;-84
2022/05/05 01:53:37;;;;;;;10.63;9.53;;;12.90;99.90;;;;;;5046718;28;20402;-84
2022/05/05 01:56:22;;;;;;;9.53;8.60;;;12.80;99.90;;;;;;5045804;28;20457;-83
2022/05/05 01:59:06;;;;;;;10.83;9.73;;;12.90;99.90;;;;;;5046024;28;20391;-83
2022/05/05 02:01:52;;;;;;;12.80;10.70;;;13.00;99.90;;;;;;5046777;28;20411;-84
2022/05/05 02:04:36;;;;;;;16.17;11.27;;;12.80;99.90;;;;;;5046306;28;20518;-83
2022/05/05 02:07:21;;;;;;;13.97;10.17;;;12.90;99.90;;;;;;5046606;28;20418;-83
2022/05/05 02:10:07;;;;;;;13.73;10.53;;;12.80;99.90;;;;;;5047099;28;20457;-81
2022/05/05 02:12:53;;;;;;;11.83;10.37;;;12.70;99.90;;;;;;5050023;28;20704;-83
2022/05/05 02:15:38;;;;;;;10.90;9.30;;;12.50;99.90;;;;;;5059585;28;20458;-83
2022/05/05 02:18:23;;;;;;;17.07;12.03;;;12.20;99.90;;;;;;5031403;28;20411;-83
2022/05/05 02:21:08;;;;;;;10.60;9.20;;;12.50;99.90;;;;;;5058977;28;20387;-83
2022/05/05 02:23:52;;;;;;;13.57;10.40;;;12.60;99.90;;;;;;5044794;28;20390;-83
2022/05/05 02:26:37;;;;;;;12.40;10.57;;;12.80;99.90;;;;;;5055311;28;20395;-83
2022/05/05 02:29:22;;;;;;;12.40;11.07;;;12.90;99.90;;;;;;5053243;28;20387;-84
2022/05/05 02:32:06;;;;;;;12.73;10.67;;;12.90;99.90;;;;;;5037791;28;20411;-83
2022/05/05 02:34:52;;;;;;;11.33;10.10;;;13.00;99.90;;;;;;5051500;28;20434;-84
2022/05/05 02:40:37;;;;;;;14.80;11.80;;;13.10;99.90;;;;;;5052514;28;20390;-84
2022/05/05 02:43:22;;;;;;;10.53;9.00;;;13.00;99.90;;;;;;5053311;28;20482;-84
2022/05/05 02:46:06;;;;;;;10.93;8.63;;;12.70;99.90;;;;;;5053319;28;20402;-84
2022/05/05 02:48:51;;;;;;;13.77;10.03;;;12.80;99.90;;;;;;5037909;28;20394;-83
2022/05/05 02:51:36;;;;;;;12.13;10.07;;;12.80;99.90;;;;;;5056013;28;20452;-83
2022/05/05 02:57:20;;;;;;;10.30;9.20;;;12.80;99.90;;;;;;5055831;28;20363;-83
2022/05/05 03:00:10;;;;;;;11.90;9.73;;;13.00;99.90;;;;;;5048874;28;20395;-83
2022/05/05 03:02:56;;;;;;;13.67;9.40;;;13.10;99.90;;;;;;5050272;28;20414;-83
2022/05/05 03:05:40;;;;;;;20.83;10.40;;;13.20;99.90;;;;;;5048850;28;20446;-83
2022/05/05 03:08:25;;;;;;;16.10;11.67;;;13.10;99.90;;;;;;5048902;28;20387;-83
2022/05/05 03:11:10;;;;;;;14.70;11.37;;;13.10;99.90;;;;;;5048362;28;20599;-83
2022/05/05 03:13:55;;;;;;;20.10;11.73;;;13.00;99.90;;;;;;5033754;28;20452;-83
2022/05/05 03:16:40;;;;;;;15.93;10.53;;;13.00;99.90;;;;;;5047642;28;20505;-82
2022/05/05 03:19:26;;;;;;;13.80;11.10;;;12.90;99.90;;;;;;5046122;28;20406;-82
2022/05/05 03:22:10;;;;;;;14.40;10.27;;;13.00;99.90;;;;;;5034376;28;20442;-82
2022/05/05 03:24:56;;;;;;;12.83;10.97;;;12.80;99.90;;;;;;5048906;28;20386;-84
2022/05/05 03:27:41;;;;;;;12.77;9.80;;;12.70;99.90;;;;;;5034098;28;20445;-83
2022/05/05 03:30:26;;;;;;;13.80;11.00;;;12.50;99.90;;;;;;5033304;28;20383;-83
2022/05/05 03:33:10;;;;;;;14.40;11.57;;;12.20;99.90;;;;;;5048838;28;20394;-84
2022/05/05 03:35:55;;;;;;;11.63;10.20;;;12.10;99.90;;;;;;5033236;28;20508;-82
2022/05/05 03:38:40;;;;;;;16.27;10.27;;;11.90;99.90;;;;;;5049358;28;20422;-83
2022/05/05 03:41:24;;;;;;;19.23;12.33;;;11.90;99.90;;;;;;5049840;28;20510;-83
2022/05/05 03:44:09;;;;;;;20.73;12.60;;;11.90;99.90;;;;;;5047659;28;20390;-82
2022/05/05 03:46:54;;;;;;;16.47;12.43;;;11.90;99.90;;;;;;5031106;28;20448;-84
2022/05/05 03:49:39;;;;;;;19.73;13.70;;;11.70;99.90;;;;;;5062385;28;20397;-83
2022/05/05 03:52:23;;;;;;;19.20;12.77;;;11.70;99.90;;;;;;5067230;28;20390;-83
2022/05/05 03:55:08;;;;;;;19.50;12.67;;;11.80;99.90;;;;;;5068164;28;20453;-83
2022/05/05 03:57:52;;;;;;;25.07;14.37;;;11.70;99.90;;;;;;5052604;28;20454;-83
2022/05/05 04:00:37;;;;;;;17.33;12.03;;;11.70;99.90;;;;;;5052026;28;20390;-83
2022/05/05 04:03:43;;;;;;;20.07;13.07;;;11.60;99.90;;;;;;5067225;28;20394;-82
2022/05/05 04:06:26;;;;;;;21.60;13.37;;;11.60;99.90;;;;;;5067742;28;20464;-82
2022/05/05 04:09:11;;;;;;;21.43;14.43;;;11.50;99.90;;;;;;5052083;28;20386;-83
2022/05/05 04:11:56;;;;;;;20.23;12.87;;;11.70;99.90;;;;;;5067120;28;20397;-82
2022/05/05 04:14:41;;;;;;;16.83;12.00;;;11.70;99.90;;;;;;5067534;28;20394;-82
2022/05/05 04:17:25;;;;;;;38.60;13.87;;;11.70;99.90;;;;;;5067558;28;20405;-83
2022/05/05 04:20:10;;;;;;;21.00;14.60;;;11.60;99.90;;;;;;5054300;28;20387;-82
2022/05/05 04:22:56;;;;;;;24.50;14.73;;;11.60;99.90;;;;;;5068782;28;20389;-83
2022/05/05 04:25:41;;;;;;;16.70;12.30;;;11.60;99.90;;;;;;5076639;28;20429;-83
2022/05/05 04:28:26;;;;;;;18.23;13.73;;;11.80;99.90;;;;;;5076093;28;20425;-82
2022/05/05 04:31:13;;;;;;;18.93;13.10;;;11.70;99.90;;;;;;5075913;28;20417;-83
2022/05/05 04:33:58;;;;;;;18.30;13.77;;;11.70;99.90;;;;;;5069545;28;20397;-83
2022/05/05 04:36:42;;;;;;;17.10;12.63;;;11.70;99.90;;;;;;5068932;28;20437;-83
2022/05/05 04:39:27;;;;;;;19.77;14.03;;;11.60;99.90;;;;;;5069816;28;20390;-84
2022/05/05 04:42:12;;;;;;;20.10;14.40;;;11.70;99.90;;;;;;5073450;28;20414;-82
2022/05/05 04:44:57;;;;;;;20.50;14.80;;;11.80;99.90;;;;;;5067582;28;20394;-83
2022/05/05 04:47:42;;;;;;;21.77;15.20;;;11.80;99.90;;;;;;5067935;28;20437;-84
2022/05/05 04:50:27;;;;;;;19.53;13.57;;;11.90;99.90;;;;;;5065711;28;20394;-83
2022/05/05 04:53:11;;;;;;;19.90;14.60;;;11.70;99.90;;;;;;5053430;28;20386;-84
2022/05/05 04:55:56;;;;;;;23.57;14.67;;;11.70;99.90;;;;;;5069755;28;20476;-82
2022/05/05 04:58:41;;;;;;;25.43;15.27;;;11.70;99.90;;;;;;5060195;28;20393;-84
2022/05/05 05:01:25;;;;;;;23.27;14.90;;;11.70;99.90;;;;;;5059610;28;20394;-82
2022/05/05 05:04:10;;;;;;;28.03;16.20;;;11.80;99.90;;;;;;5056887;28;20436;-82
2022/05/05 05:06:55;;;;;;;18.63;13.50;;;11.80;99.90;;;;;;5055698;28;20470;-84
2022/05/05 05:09:40;;;;;;;21.23;15.80;;;11.80;99.90;;;;;;5066069;28;20486;-82
2022/05/05 05:12:24;;;;;;;24.67;16.07;;;11.90;99.90;;;;;;5069621;28;20381;-84
2022/05/05 05:15:09;;;;;;;20.20;14.47;;;11.90;99.90;;;;;;5051764;28;20449;-83
2022/05/05 05:17:54;;;;;;;22.07;15.10;;;11.90;99.90;;;;;;5042718;28;20444;-83
2022/05/05 05:20:38;;;;;;;23.97;14.90;;;11.90;99.90;;;;;;5058346;28;20897;-82
2022/05/05 05:23:23;;;;;;;24.23;15.20;;;12.10;99.90;;;;;;5066677;28;20436;-83
2022/05/05 05:26:08;;;;;;;21.00;14.40;;;12.10;99.90;;;;;;5076861;28;20438;-82
2022/05/05 05:28:52;;;;;;;26.60;14.43;;;12.00;99.90;;;;;;5075617;28;20408;-83
2022/05/05 05:31:37;;;;;;;22.43;14.90;;;11.80;99.90;;;;;;5060287;28;20434;-83
2022/05/05 05:34:21;;;;;;;20.80;14.17;;;12.00;99.90;;;;;;5078772;28;20449;-84
2022/05/05 05:37:06;;;;;;;23.27;15.67;;;12.10;99.90;;;;;;5069021;28;20446;-83
2022/05/05 05:39:51;;;;;;;20.90;15.07;;;12.10;99.90;;;;;;5075891;28;20437;-84
2022/05/05 05:42:36;;;;;;;23.50;15.17;;;12.00;99.90;;;;;;5062242;28;20457;-82
2022/05/05 05:45:20;;;;;;;23.67;16.23;;;12.20;99.90;;;;;;5062367;28;20510;-81
2022/05/05 05:48:06;;;;;;;25.03;13.47;;;12.40;99.90;;;;;;5053680;28;20458;-80
2022/05/05 05:50:51;;;;;;;24.20;16.07;;;12.40;99.90;;;;;;5079139;28;20480;-78
2022/05/05 05:53:36;;;;;;;22.63;16.57;;;12.60;99.90;;;;;;5047222;28;20418;-84
2022/05/05 05:56:21;;;;;;;24.30;17.50;;;12.50;99.90;;;;;;5070992;28;20508;-82
2022/05/05 05:59:05;;;;;;;20.20;14.27;;;12.80;99.90;;;;;;5066143;28;20425;-83
2022/05/05 06:04:52;;;;;;;22.23;16.03;;;12.50;99.90;;;;;;5060928;28;20451;-81
2022/05/05 06:07:36;;;;;;;23.63;15.87;;;12.60;99.90;;;;;;5060110;28;21159;-82
2022/05/05 06:10:21;;;;;;;23.53;15.97;;;12.70;99.90;;;;;;5059519;28;20433;-82
2022/05/05 06:13:06;;;;;;;28.40;17.33;;;12.80;99.90;;;;;;5062066;28;20421;-82
2022/05/05 06:15:52;;;;;;;24.40;18.30;;;13.00;99.90;;;;;;5040407;28;20475;-82
2022/05/05 06:18:37;;;;;;;22.70;16.50;;;13.20;99.90;;;;;;5060271;28;20445;-82
2022/05/05 06:21:22;;;;;;;26.10;17.07;;;13.40;99.90;;;;;;5064276;28;20445;-81
2022/05/05 06:24:07;;;;;;;31.53;20.10;;;13.50;99.90;;;;;;5039839;28;20831;-80
2022/05/05 06:26:52;;;;;;;27.20;18.73;;;13.50;99.90;;;;;;5022528;28;20457;-80
2022/05/05 06:29:37;;;;;;;22.97;17.10;;;13.70;99.90;;;;;;5047884;28;20449;-77
2022/05/05 06:32:22;;;;;;;30.20;17.27;;;13.80;99.90;;;;;;5052257;28;20472;-82
2022/05/05 06:35:10;;;;;;;26.80;16.00;;;13.60;99.90;;;;;;5062238;28;20457;-80
2022/05/05 06:37:55;;;;;;;23.90;14.33;;;13.50;99.90;;;;;;5037147;28;20526;-80
2022/05/05 06:40:40;;;;;;;25.17;17.03;;;13.70;99.90;;;;;;5058316;28;20935;-80
2022/05/05 06:43:25;;;;;;;25.43;18.50;;;13.50;99.90;;;;;;5053914;28;20459;-80
2022/05/05 06:46:10;;;;;;;21.00;15.20;;;13.70;99.90;;;;;;5011891;28;20446;-79
2022/05/05 06:48:54;;;;;;;21.40;15.83;;;13.60;99.90;;;;;;5018178;28;20443;-80
2022/05/05 06:51:39;;;;;;;24.00;17.57;;;13.50;99.90;;;;;;5019800;28;20443;-82
2022/05/05 06:54:23;;;;;;;22.37;16.03;;;13.50;99.90;;;;;;5002106;28;20501;-82
2022/05/05 06:57:09;;;;;;;19.20;15.40;;;13.40;99.90;;;;;;5022479;28;20459;-81
2022/05/05 06:59:53;;;;;;;18.67;14.00;;;13.40;99.90;;;;;;5021201;28;20490;-83
2022/05/05 07:02:38;;;;;;;19.10;14.37;;;13.40;99.90;;;;;;4997177;28;20474;-83
2022/05/05 07:05:24;;;;;;;14.93;12.03;;;13.60;99.90;;;;;;5018697;28;20580;-81
2022/05/05 07:08:08;;;;;;;17.57;13.20;;;13.70;99.90;;;;;;5017453;28;20435;-83
2022/05/05 07:10:53;;;;;;;15.93;12.90;;;13.70;99.90;;;;;;5013897;28;20451;-82
2022/05/05 07:13:37;;;;;;;16.43;12.60;;;14.10;99.90;;;;;;5013676;28;20454;-82
2022/05/05 07:16:23;;;;;;;15.17;12.57;;;14.00;99.90;;;;;;5018421;28;20851;-82
2022/05/05 07:19:07;;;;;;;11.53;9.67;;;13.60;99.90;;;;;;5055315;28;20430;-83
2022/05/05 07:21:51;;;;;;;14.73;11.87;;;13.90;99.90;;;;;;5058817;28;20417;-84
2022/05/05 07:24:36;;;;;;;15.17;12.33;;;14.30;99.90;;;;;;5040498;28;20478;-84
2022/05/05 07:27:21;;;;;;;16.03;12.53;;;14.10;99.90;;;;;;5042259;28;20434;-81
2022/05/05 07:30:08;;;;;;;16.83;13.13;;;14.30;99.90;;;;;;5043162;28;20425;-82
2022/05/05 07:32:53;;;;;;;15.60;12.90;;;14.40;99.90;;;;;;5048479;28;20437;-83
2022/05/05 07:35:38;;;;;;;18.17;12.87;;;14.40;99.90;;;;;;5044995;28;20457;-84
2022/05/05 07:38:23;;;;;;;14.57;13.07;;;14.60;99.90;;;;;;5052532;28;20514;-81
2022/05/05 07:41:08;;;;;;;15.30;13.70;;;14.80;99.90;;;;;;5052798;28;20472;-83
2022/05/05 07:43:52;;;;;;;15.50;12.23;;;14.90;99.90;;;;;;5055951;28;20417;-82
2022/05/05 07:46:37;;;;;;;16.60;12.63;;;15.00;99.90;;;;;;5046609;28;20449;-82
2022/05/05 07:49:23;;;;;;;17.20;12.93;;;15.10;99.90;;;;;;5048430;28;20441;-83
2022/05/05 07:52:07;;;;;;;16.97;15.07;;;15.10;99.90;;;;;;5058119;28;20449;-82
2022/05/05 07:54:53;;;;;;;16.17;13.80;;;14.80;99.90;;;;;;5050674;28;20440;-82
2022/05/05 07:57:44;;;;;;;16.05;13.75;;;14.50;99.90;;;;;;4972936;28;20438;-79
2022/05/05 08:00:28;;;;;;;16.53;14.00;;;14.30;99.90;;;;;;4966952;28;20254;-83
2022/05/05 08:03:14;;;;;;;17.93;14.10;;;14.60;99.90;;;;;;4979973;28;20473;-83
2022/05/05 08:05:59;;;;;;;14.77;10.93;;;14.80;99.90;;;;;;4958627;28;20488;-82
2022/05/05 08:08:44;;;;;;;12.53;10.77;;;14.60;99.90;;;;;;4973700;28;20461;-84
2022/05/05 08:11:29;;;;;;;16.53;12.80;;;14.80;99.90;;;;;;4971773;28;20460;-79
2022/05/05 08:14:14;;;;;;;19.67;13.27;;;14.90;99.90;;;;;;4982895;28;20444;-81
2022/05/05 08:16:59;;;;;;;14.63;13.03;;;15.30;99.90;;;;;;4968884;28;20532;-82
2022/05/05 08:19:43;;;;;;;18.13;13.70;;;15.10;99.90;;;;;;4985388;28;20433;-79
2022/05/05 08:22:29;;;;;;;14.90;13.30;;;15.20;99.90;;;;;;4959653;28;20526;-80
2022/05/05 08:28:33;;;;;;;13.17;11.83;;;15.40;99.90;;;;;;4961427;28;20440;-80
2022/05/05 08:31:18;;;;;;;12.13;10.93;;;16.20;99.90;;;;;;4971663;28;21093;-80
2022/05/05 08:34:04;;;;;;;15.37;12.30;;;16.70;99.90;;;;;;4983972;28;20492;-81
2022/05/05 08:36:51;;;;;;;13.60;11.37;;;16.60;99.90;;;;;;4968645;28;20629;-81
2022/05/05 08:39:36;;;;;;;13.00;11.80;;;16.90;99.90;;;;;;4979922;28;20453;-82
2022/05/05 08:42:21;;;;;;;11.70;10.50;;;17.10;99.90;;;;;;5018423;28;20496;-82
2022/05/05 08:45:06;;;;;;;11.43;10.43;;;17.20;99.90;;;;;;5017284;28;20439;-79
2022/05/05 08:47:53;;;;;;;15.13;10.13;;;17.20;99.90;;;;;;5012279;28;20512;-81
2022/05/05 08:50:40;;;;;;;13.40;10.07;;;17.30;99.90;;;;;;4995412;28;20470;-82
2022/05/05 08:53:32;;;;;;;11.00;9.90;;;16.90;99.90;;;;;;5032975;28;20456;-83
2022/05/05 08:56:17;;;;;;;10.73;9.77;;;16.60;99.90;;;;;;5056596;28;20465;-83
2022/05/05 08:59:03;;;;;;;11.73;10.40;;;16.50;99.90;;;;;;5040546;28;20533;-82
2022/05/05 09:01:49;;;;;;;10.20;9.30;;;16.90;99.90;;;;;;5043711;28;20480;-81
2022/05/05 09:04:53;;;;;;;10.57;9.47;;;17.00;99.90;;;;;;5009834;28;20545;-83
2022/05/05 09:07:48;;;;;;;11.60;10.40;;;16.90;99.90;;;;;;5008030;28;20468;-81
2022/05/05 09:10:50;;;;;;;10.40;9.30;;;16.10;99.90;;;;;;4976308;28;20451;-78
2022/05/05 09:13:37;;;;;;;11.27;9.53;;;17.00;99.90;;;;;;4999135;28;20618;-80
2022/05/05 09:16:26;;;;;;;14.07;10.80;;;16.80;99.90;;;;;;5009696;28;20518;-79
2022/05/05 09:19:10;;;;;;;11.17;10.10;;;17.20;99.90;;;;;;5001931;28;20479;-79
2022/05/05 09:21:57;;;;;;;11.83;10.30;;;17.90;99.90;;;;;;4998803;28;20491;-82
2022/05/05 09:24:49;;;;;;;10.80;8.83;;;18.30;99.90;;;;;;5017491;28;20482;-81
2022/05/05 09:27:34;;;;;;;11.83;10.73;;;18.60;99.90;;;;;;4984416;28;20460;-83
2022/05/05 09:30:19;;;;;;;10.60;9.70;;;18.50;99.90;;;;;;5017213;28;20607;-80
2022/05/05 09:33:04;;;;;;;10.23;9.23;;;18.70;99.90;;;;;;5017307;28;20487;-82
2022/05/05 09:35:56;;;;;;;10.47;9.47;;;17.70;99.90;;;;;;5026194;28;20464;-83
2022/05/05 09:38:50;;;;;;;11.70;9.10;;;17.80;99.90;;;;;;5042195;28;20499;-82
2022/05/05 09:41:44;;;;;;;10.60;9.60;;;17.70;99.90;;;;;;5062356;28;20437;-82
2022/05/05 09:44:29;;;;;;;10.57;9.50;;;17.70;99.90;;;;;;5044726;28;20582;-82
2022/05/05 09:47:16;;;;;;;10.50;9.53;;;17.20;99.90;;;;;;5047030;28;20465;-83
2022/05/05 09:50:00;;;;;;;10.10;9.10;;;17.00;99.90;;;;;;5051301;28;20475;-79
2022/05/05 09:59:00;;;;;;;9.13;8.23;;;17.70;99.90;;;;;;5054355;28;20471;-78
2022/05/05 10:01:55;;;;;;;9.63;7.90;;;18.00;99.90;;;;;;5028180;28;20464;-79
2022/05/05 10:04:49;;;;;;;21.90;19.73;;;18.80;99.90;;;;;;5038820;28;20496;-80
2022/05/05 10:07:38;;;;;;;8.07;7.33;;;19.00;99.90;;;;;;5045444;28;20449;-82
2022/05/05 10:10:23;;;;;;;6.93;6.13;;;19.70;99.90;;;;;;5059224;28;20429;-82
2022/05/05 10:13:12;;;;;;;7.00;6.10;;;19.10;99.90;;;;;;5057533;28;20445;-80
2022/05/05 10:16:00;;;;;;;8.17;7.33;;;18.10;99.90;;;;;;5056345;28;20464;-81
2022/05/05 10:18:44;;;;;;;10.80;6.27;;;18.40;99.90;;;;;;5056432;28;20469;-81
2022/05/05 10:21:58;;;;;;;7.00;6.37;;;18.20;99.90;;;;;;5043390;28;20866;-81
2022/05/05 10:24:55;;;;;;;8.43;6.50;;;18.70;99.90;;;;;;5044299;28;20453;-77
2022/05/05 10:27:48;;;;;;;7.10;6.20;;;18.40;99.90;;;;;;5055890;28;20484;-82
2022/05/05 10:30:34;;;;;;;6.57;5.97;;;17.90;99.90;;;;;;5060010;28;20500;-80
2022/05/05 10:33:18;;;;;;;6.97;6.37;;;17.90;99.90;;;;;;5045591;28;20532;-80
2022/05/05 10:36:22;;;;;;;6.50;5.90;;;18.20;99.90;;;;;;5045462;28;20484;-81
2022/05/05 10:39:22;;;;;;;5.87;5.47;;;18.60;99.90;;;;;;5065317;28;20449;-82
2022/05/05 10:42:21;;;;;;;8.00;5.73;;;19.30;99.90;;;;;;5046329;28;20935;-78
2022/05/05 10:45:12;;;;;;;6.83;5.80;;;20.10;99.90;;;;;;5056845;28;20424;-81
2022/05/05 10:48:12;;;;;;;8.00;6.87;;;20.30;99.90;;;;;;5057315;28;20445;-80
2022/05/05 10:51:05;;;;;;;6.60;6.10;;;19.30;99.90;;;;;;5021729;28;20481;-80
2022/05/05 10:53:52;;;;;;;6.83;6.10;;;18.70;99.90;;;;;;5034578;28;20417;-80
2022/05/05 10:56:39;;;;;;;5.63;5.17;;;19.30;99.90;;;;;;5040047;28;20577;-80
2022/05/05 10:59:23;;;;;;;6.43;5.83;;;19.40;99.90;;;;;;5040721;28;20441;-80
2022/05/05 11:02:18;;;;;;;7.50;4.73;;;19.50;99.90;;;;;;5041980;28;20425;-80
2022/05/05 11:05:27;;;;;;;5.33;4.93;;;20.20;99.90;;;;;;5050538;28;20631;-78
2022/05/05 11:08:32;;;;;;;6.13;4.63;;;19.60;99.90;;;;;;5040242;28;20797;-81
2022/05/05 11:24:02;;;;;;;8.63;4.73;;;21.90;99.90;;;;;;5044956;28;20441;-82
2022/05/05 11:26:48;;;;;;;3.80;3.50;;;22.20;99.90;;;;;;5050191;28;20462;-81
2022/05/05 11:29:33;;;;;;;4.87;4.30;;;22.70;99.90;;;;;;5055267;28;20454;-82
2022/05/05 11:32:21;;;;;;;6.10;5.50;;;22.60;99.90;;;;;;5053983;28;20421;-80
2022/05/05 11:35:07;;;;;;;7.20;5.57;;;21.60;99.90;;;;;;5055671;28;20417;-81
2022/05/05 11:37:51;;;;;;;5.10;4.73;;;21.10;99.90;;;;;;5035008;28;20445;-82
2022/05/05 11:40:36;;;;;;;5.23;4.83;;;21.20;99.90;;;;;;5054798;28;20471;-80
2022/05/05 11:46:20;;;;;;;4.97;4.63;;;21.60;99.90;;;;;;5035197;28;20877;-83
2022/05/05 11:49:06;;;;;;;3.40;3.20;;;22.50;99.90;;;;;;5055248;28;20473;-82
2022/05/05 11:51:53;;;;;;;3.40;3.20;;;22.70;99.90;;;;;;5020361;28;21086;-78
2022/05/05 11:54:49;;;;;;;4.73;4.40;;;21.80;99.90;;;;;;5055743;28;20499;-81
2022/05/05 11:57:38;;;;;;;4.23;3.90;;;20.90;99.90;;;;;;5021833;28;20550;-80
2022/05/05 12:03:34;;;;;;;4.00;3.70;;;22.50;99.90;;;;;;5063047;28;20424;-81
2022/05/05 12:06:21;;;;;;;4.10;3.80;;;23.40;99.90;;;;;;5043373;28;20464;-82
2022/05/05 12:09:07;;;;;;;4.90;4.50;;;24.50;99.90;;;;;;5039883;28;20960;-80
2022/05/05 12:11:52;;;;;;;6.10;4.03;;;23.50;99.90;;;;;;5019632;28;20451;-82
2022/05/05 12:14:42;;;;;;;4.27;4.03;;;24.40;99.90;;;;;;5036417;28;20428;-81
2022/05/05 12:17:41;;;;;;;4.33;4.03;;;24.90;98.50;;;;;;5035180;28;20439;-80
2022/05/05 12:20:29;;;;;;;5.60;4.47;;;24.00;97.80;;;;;;5048740;28;20487;-79
2022/05/05 12:23:13;;;;;;;7.67;4.77;;;23.20;97.00;;;;;;5049806;28;20413;-81
2022/05/05 12:26:00;;;;;;;3.70;3.40;;;22.60;98.80;;;;;;5040264;28;20980;-81
2022/05/05 12:28:51;;;;;;;4.70;4.30;;;21.80;98.80;;;;;;5011301;28;21392;-82
2022/05/05 12:31:36;;;;;;;3.90;3.70;;;20.50;99.90;;;;;;5009729;28;20422;-81
2022/05/05 12:34:25;;;;;;;4.50;4.20;;;21.10;99.90;;;;;;5005892;28;20523;-80
2022/05/05 12:37:15;;;;;;;7.20;4.30;;;22.30;99.90;;;;;;5001771;28;20467;-80
2022/05/05 12:40:01;;;;;;;3.90;3.60;;;23.40;98.30;;;;;;4982337;28;20486;-81
2022/05/05 12:42:50;;;;;;;4.37;4.03;;;24.20;96.80;;;;;;4990083;28;20432;-83
2022/05/05 12:45:36;;;;;;;4.97;4.57;;;24.40;95.20;;;;;;4992915;28;20863;-82
2022/05/05 12:48:21;;;;;;;4.20;3.90;;;23.30;93.80;;;;;;4980176;28;20423;-79
2022/05/05 12:51:33;;;;;;;4.13;3.83;;;22.40;95.10;;;;;;5003825;28;20439;-79
2022/05/05 13:00:22;;;;;;;5.93;5.43;;;23.00;98.30;;;;;;4982071;28;20459;-82
2022/05/05 13:03:07;;;;;;;5.10;4.60;;;23.30;97.40;;;;;;5001331;28;20431;-81
2022/05/05 13:05:51;;;;;;;6.30;5.43;;;23.20;97.80;;;;;;5010137;28;20523;-82
2022/05/05 13:08:36;;;;;;;4.97;4.53;;;23.40;97.10;;;;;;5056921;28;20445;-82
2022/05/05 13:11:23;;;;;;;4.60;4.30;;;23.70;98.50;;;;;;5052641;28;20437;-80
2022/05/05 13:14:09;;;;;;;4.43;4.13;;;24.50;96.20;;;;;;5043661;28;20471;-83
2022/05/05 13:16:54;;;;;;;4.90;4.50;;;25.20;94.30;;;;;;5056452;28;20450;-82
2022/05/05 13:19:38;;;;;;;5.97;4.27;;;25.60;93.50;;;;;;5055309;28;20425;-81
2022/05/05 13:22:23;;;;;;;4.23;3.93;;;25.40;93.00;;;;;;5057875;28;20468;-83
2022/05/05 13:25:08;;;;;;;5.47;4.97;;;25.10;91.90;;;;;;5043704;28;20422;-82
2022/05/05 13:27:53;;;;;;;6.27;4.80;;;24.80;92.60;;;;;;5045534;28;20444;-79
2022/05/05 13:30:37;;;;;;;5.00;4.60;;;24.50;94.60;;;;;;5045951;28;20433;-83
2022/05/05 13:33:21;;;;;;;5.70;5.07;;;23.40;94.90;;;;;;5054224;28;20425;-83
2022/05/05 13:36:06;;;;;;;4.53;4.13;;;23.80;96.20;;;;;;5054458;28;20456;-80
2022/05/05 13:38:51;;;;;;;5.73;5.03;;;24.20;95.20;;;;;;5029628;28;21035;-81
2022/05/05 13:41:36;;;;;;;6.17;4.67;;;24.90;93.50;;;;;;5055271;28;20479;-81
2022/05/05 13:44:20;;;;;;;5.10;4.70;;;24.70;92.80;;;;;;5030787;28;20433;-83
2022/05/05 13:47:05;;;;;;;5.00;4.60;;;24.80;93.60;;;;;;5057359;28;20428;-82
2022/05/05 13:49:50;;;;;;;5.27;4.87;;;24.90;94.80;;;;;;5059326;28;20456;-83
2022/05/05 13:52:34;;;;;;;5.00;4.60;;;25.00;94.70;;;;;;5060348;28;20429;-81
2022/05/05 13:55:19;;;;;;;5.07;4.67;;;23.70;92.40;;;;;;5053200;28;20541;-83
2022/05/05 13:58:06;;;;;;;5.23;4.73;;;22.70;93.00;;;;;;5036989;28;20545;-81
2022/05/05 14:00:51;;;;;;;4.73;4.43;;;21.90;95.10;;;;;;5039433;28;20437;-80
2022/05/05 14:03:36;;;;;;;6.60;5.03;;;21.30;96.70;;;;;;5033729;28;20429;-79
2022/05/05 14:06:20;;;;;;;5.93;5.17;;;21.00;98.70;;;;;;5035478;28;20788;-80
2022/05/05 14:12:10;;;;;;;5.60;5.10;;;20.50;98.20;;;;;;5054124;28;20476;-80
2022/05/05 14:14:55;;;;;;;5.27;4.57;;;20.30;99.90;;;;;;5043296;28;20399;-81
2022/05/05 14:17:39;;;;;;;6.53;5.90;;;20.10;99.90;;;;;;5054018;28;20504;-79
2022/05/05 14:20:26;;;;;;;5.90;5.40;;;20.70;99.90;;;;;;5039773;28;20425;-79
2022/05/05 14:23:12;;;;;;;6.73;5.23;;;20.80;99.90;;;;;;5035343;28;20445;-81
2022/05/05 14:25:59;;;;;;;8.13;5.70;;;20.50;99.90;;;;;;4942484;28;20988;-82
2022/05/05 14:28:44;;;;;;;8.50;6.03;;;20.40;99.90;;;;;;4984960;28;20468;-81
2022/05/05 14:31:29;;;;;;;4.97;4.57;;;21.10;99.90;;;;;;4997772;28;20901;-81
2022/05/05 14:34:15;;;;;;;5.63;5.23;;;21.80;99.90;;;;;;4995506;28;20523;-83
2022/05/05 14:37:00;;;;;;;6.10;5.70;;;22.40;99.90;;;;;;5002362;28;21141;-82
2022/05/05 14:39:44;;;;;;;6.83;6.33;;;22.50;99.90;;;;;;4999067;28;20911;-83
2022/05/05 14:42:28;;;;;;;7.23;6.60;;;22.60;99.90;;;;;;4967407;28;20440;-82
2022/05/05 14:45:17;;;;;;;7.37;6.17;;;22.40;99.90;;;;;;4991655;28;20448;-83
2022/05/05 14:48:04;;;;;;;6.83;6.33;;;22.40;99.90;;;;;;4961294;28;20420;-81
2022/05/05 14:50:49;;;;;;;7.50;6.80;;;22.20;99.90;;;;;;4968286;28;20444;-84
2022/05/05 14:53:33;;;;;;;7.17;6.47;;;21.90;99.90;;;;;;4998144;28;20490;-84
2022/05/05 14:56:18;;;;;;;7.73;7.03;;;21.60;99.90;;;;;;5028870;28;20524;-80
2022/05/05 14:59:03;;;;;;;8.17;7.23;;;21.50;99.90;;;;;;5045259;28;20485;-82
2022/05/05 15:01:48;;;;;;;6.60;6.03;;;21.60;99.90;;;;;;5060521;28;20461;-79
2022/05/05 15:04:33;;;;;;;5.97;5.40;;;21.70;99.90;;;;;;5050210;28;20485;-82
2022/05/05 15:07:17;;;;;;;5.83;5.43;;;21.90;99.90;;;;;;5045171;28;20802;-84
2022/05/05 15:10:02;;;;;;;6.10;5.60;;;22.40;99.90;;;;;;5049788;28;20437;-85